createdAt,value
2024-01-11T00:01:10.336Z,100154.36
2024-01-11T00:03:37.790Z,100150.46
2024-01-11T00:06:05.796Z,100141.23
2024-01-11T00:08:33.447Z,100136.66
2024-01-11T00:11:01.107Z,100125.73
2024-01-11T00:13:28.537Z,100119.98
2024-01-11T00:15:55.984Z,100116.40
2024-01-11T00:18:23.593Z,100109.21
2024-01-11T00:20:51.051Z,100102.76
2024-01-11T00:23:18.585Z,100104.13
2024-01-11T00:25:46.145Z,100101.12
2024-01-11T00:28:13.614Z,100103.34
2024-01-11T00:30:41.015Z,100109.22
2024-01-11T00:33:08.629Z,100115.94
2024-01-11T00:35:36.162Z,100107.30
2024-01-11T00:38:03.921Z,100106.75
2024-01-11T00:40:31.386Z,100103.42
2024-01-11T00:42:58.865Z,100101.98
2024-01-11T00:45:26.258Z,100096.92
2024-01-11T00:47:53.887Z,100099.08
2024-01-11T00:50:21.368Z,100096.80
2024-01-11T00:52:48.736Z,100092.17
2024-01-11T00:55:17.442Z,100091.27
2024-01-11T00:57:44.848Z,100078.20
2024-01-11T01:00:15.216Z,100073.33
2024-01-11T01:02:42.941Z,100064.89
2024-01-11T01:05:10.447Z,100057.11
2024-01-11T01:07:37.847Z,100047.17
2024-01-11T01:10:05.601Z,100047.17
2024-01-11T01:12:32.999Z,100046.52
2024-01-11T01:15:00.515Z,100044.27
2024-01-11T01:17:27.992Z,100045.88
2024-01-11T01:19:55.540Z,100037.45
2024-01-11T01:22:22.984Z,100037.91
2024-01-11T01:24:50.535Z,100032.14
2024-01-11T01:27:18.070Z,100024.04
2024-01-11T01:29:45.939Z,100024.52
2024-01-11T01:32:13.506Z,100021.41
2024-01-11T01:34:40.942Z,100022.48
2024-01-11T01:37:08.334Z,100013.34
2024-01-11T01:39:38.941Z,100009.25
2024-01-11T01:42:07.785Z,100005.98
2024-01-11T01:44:35.346Z,100003.04
2024-01-11T01:47:04.130Z,99996.27
2024-01-11T01:49:31.784Z,99989.33
2024-01-11T01:51:59.270Z,99979.40
2024-01-11T01:54:26.718Z,99970.25
2024-01-11T01:56:54.339Z,99966.17
2024-01-11T01:59:21.915Z,99955.65
2024-01-11T02:01:49.535Z,99949.70
2024-01-11T02:04:17.105Z,99936.92
2024-01-11T02:06:46.256Z,99928.75
2024-01-11T02:09:14.661Z,99924.63
2024-01-11T02:11:45.969Z,99915.98
2024-01-11T02:14:13.423Z,99908.91
2024-01-11T02:16:40.886Z,99904.38
2024-01-11T02:19:08.712Z,99902.95
2024-01-11T02:21:36.216Z,99892.36
2024-01-11T02:24:07.593Z,99887.58
2024-01-11T02:26:35.333Z,99887.23
2024-01-11T02:29:03.281Z,99877.45
2024-01-11T02:31:30.864Z,99871.70
2024-01-11T02:33:58.512Z,99872.73
2024-01-11T02:36:26.412Z,99875.20
2024-01-11T02:38:53.935Z,99867.73
2024-01-11T02:41:21.423Z,99858.70
2024-01-11T02:43:49.628Z,99853.59
2024-01-11T02:46:18.036Z,99851.42
2024-01-11T02:48:45.869Z,99846.52
2024-01-11T02:51:14.112Z,99841.77
2024-01-11T02:53:41.666Z,99837.52
2024-01-11T02:56:09.211Z,99837.97
2024-01-11T02:58:36.699Z,99836.86
2024-01-11T03:01:04.759Z,99834.86
2024-01-11T03:03:32.329Z,99824.81
2024-01-11T03:05:59.945Z,99823.09
2024-01-11T03:08:27.688Z,99810.59
2024-01-11T03:10:55.198Z,99800.67
2024-01-11T03:13:22.749Z,99784.29
2024-01-11T03:15:51.284Z,99778.50
2024-01-11T03:18:19.562Z,99772.50
2024-01-11T03:20:47.353Z,99769.52
2024-01-11T03:23:16.467Z,99770.73
2024-01-11T03:25:45.287Z,99763.26
2024-01-11T03:28:13.415Z,99757.36
2024-01-11T03:30:41.039Z,99742.73
2024-01-11T03:33:09.529Z,99728.96
2024-01-11T03:35:39.931Z,99728.87
2024-01-11T03:38:07.848Z,99720.23
2024-01-11T03:40:35.452Z,99703.17
2024-01-11T03:43:04.288Z,99691.70
2024-01-11T03:45:31.823Z,99691.91
2024-01-11T03:47:59.406Z,99691.06
2024-01-11T03:50:26.980Z,99682.59
2024-01-11T03:52:55.608Z,99672.02
2024-01-11T03:55:23.634Z,99669.38
2024-01-11T03:57:52.414Z,99659.94
2024-01-11T04:00:20.302Z,99660.98
2024-01-11T04:02:47.956Z,99657.13
2024-01-11T04:05:16.878Z,99659.67
2024-01-11T04:07:44.536Z,99658.23
2024-01-11T04:10:12.333Z,99652.96
2024-01-11T04:12:40.458Z,99642.85
2024-01-11T04:15:09.707Z,99645.34
2024-01-11T04:17:39.477Z,99653.81
2024-01-11T04:20:09.730Z,99655.55
2024-01-11T04:22:41.346Z,99660.62
2024-01-11T04:25:12.373Z,99652.00
2024-01-11T04:27:42.756Z,99658.46
2024-01-11T04:30:13.420Z,99654.96
2024-01-11T04:32:44.401Z,99646.91
2024-01-11T04:35:14.099Z,99646.36
2024-01-11T04:37:44.376Z,99643.77
2024-01-11T04:40:15.406Z,99645.17
2024-01-11T04:42:45.083Z,99644.09
2024-01-11T04:45:15.393Z,99653.25
2024-01-11T04:47:45.976Z,99642.63
2024-01-11T04:50:15.791Z,99641.06
2024-01-11T04:52:47.442Z,99633.02
2024-01-11T04:55:18.433Z,99638.13
2024-01-11T04:57:48.956Z,99636.02
2024-01-11T05:00:18.852Z,99632.14
2024-01-11T05:02:48.593Z,99625.98
2024-01-11T05:05:18.738Z,99625.23
2024-01-11T05:07:49.430Z,99626.35
2024-01-11T05:10:20.468Z,99627.19
2024-01-11T05:12:50.808Z,99626.85
2024-01-11T05:15:21.506Z,99617.59
2024-01-11T05:24:55.240Z,99607.41
2024-01-11T05:27:42.505Z,99600.42
2024-01-11T05:30:11.201Z,99600.27
2024-01-11T05:33:17.433Z,99606.25
2024-01-11T05:35:44.255Z,99612.20
2024-01-11T05:38:10.947Z,99613.16
2024-01-11T05:40:38.720Z,99608.18
2024-01-11T05:43:05.529Z,99602.27
2024-01-11T05:45:45.863Z,99597.89
2024-01-11T05:48:16.309Z,99603.11
2024-01-11T05:50:44.119Z,99601.46
2024-01-11T05:53:14.050Z,99592.63
2024-01-11T05:55:41.054Z,99594.29
2024-01-11T05:58:07.717Z,99596.38
2024-01-11T06:00:34.740Z,99597.08
2024-01-11T06:03:02.316Z,99597.10
2024-01-11T06:05:29.267Z,99604.98
2024-01-11T06:07:56.261Z,99597.52
2024-01-11T06:10:23.343Z,99559.48
2024-01-11T06:12:50.203Z,99525.39
2024-01-11T06:15:17.564Z,99525.39
2024-01-11T06:17:44.537Z,99523.84
2024-01-11T06:20:12.285Z,99533.11
2024-01-11T06:22:39.830Z,99541.77
2024-01-11T06:25:08.005Z,99544.35
2024-01-11T06:27:34.940Z,99544.00
2024-01-11T06:30:01.892Z,99558.98
2024-01-11T06:32:29.153Z,99556.69
2024-01-11T06:34:56.481Z,99538.52
2024-01-11T06:37:23.800Z,99534.66
2024-01-11T06:39:50.897Z,99535.14
2024-01-11T06:42:19.205Z,99533.52
2024-01-11T06:44:46.887Z,99545.89
2024-01-11T06:47:13.732Z,99544.27
2024-01-11T06:49:40.640Z,99542.80
2024-01-11T06:52:07.749Z,99544.20
2024-01-11T06:54:35.103Z,99542.70
2024-01-11T06:57:01.962Z,99537.27
2024-01-11T06:59:28.974Z,99534.80
2024-01-11T07:01:55.770Z,99533.29
2024-01-11T07:04:22.673Z,99525.31
2024-01-11T07:06:49.821Z,99521.48
2024-01-11T07:09:17.575Z,99520.43
2024-01-11T07:11:44.923Z,99516.45
2024-01-11T07:14:12.280Z,99518.23
2024-01-11T07:16:39.590Z,99517.91
2024-01-11T07:19:06.805Z,99511.64
2024-01-11T07:21:33.807Z,99508.94
2024-01-11T07:24:00.828Z,99505.10
2024-01-11T07:26:27.890Z,99504.40
2024-01-11T07:28:58.101Z,99499.52
2024-01-11T07:31:24.957Z,99491.79
2024-01-11T07:33:51.892Z,99490.23
2024-01-11T07:36:19.275Z,99486.92
2024-01-11T07:38:46.071Z,99484.48
2024-01-11T07:41:13.265Z,99491.86
2024-01-11T07:43:49.180Z,99479.83
2024-01-11T07:46:28.987Z,99475.45
2024-01-11T07:49:06.387Z,99467.60
2024-01-11T07:51:35.262Z,99467.25
2024-01-11T07:54:03.036Z,99463.93
2024-01-11T07:56:30.253Z,99459.76
2024-01-11T07:58:57.092Z,99451.35
2024-01-11T08:01:23.890Z,99455.85
2024-01-11T08:03:52.720Z,99453.58
2024-01-11T08:06:19.680Z,99453.98
2024-01-11T08:08:52.095Z,99458.06
2024-01-11T08:11:19.480Z,99461.40
2024-01-11T08:13:46.410Z,99467.35
2024-01-11T08:16:17.385Z,99467.20
2024-01-11T08:18:44.491Z,99464.77
2024-01-11T08:21:11.285Z,99455.27
2024-01-11T08:23:49.193Z,99467.34
2024-01-11T08:26:16.568Z,99464.01
2024-01-11T08:28:43.513Z,99466.98
2024-01-11T08:31:10.680Z,99466.81
2024-01-11T08:34:44.328Z,99474.21
2024-01-11T08:37:12.193Z,99462.88
2024-01-11T08:39:41.960Z,99463.52
2024-01-11T08:42:10.268Z,99457.54
2024-01-11T08:44:37.929Z,99455.27
2024-01-11T08:47:05.459Z,99458.38
2024-01-11T08:57:16.720Z,99449.73
2024-01-11T08:59:44.324Z,99445.35
2024-01-11T09:02:16.523Z,99443.63
2024-01-11T09:04:48.840Z,99434.39
2024-01-11T09:07:17.324Z,99437.36
2024-01-11T09:09:51.288Z,99428.77
2024-01-11T09:12:24.174Z,99425.38
2024-01-11T09:14:51.698Z,99424.17
2024-01-11T09:17:19.424Z,99411.63
2024-01-11T09:19:47.048Z,99414.42
2024-01-11T09:22:14.744Z,99406.38
2024-01-11T09:32:26.941Z,99382.45
2024-01-11T09:34:54.868Z,99382.42
2024-01-11T09:37:22.438Z,99375.77
2024-01-11T09:39:50.069Z,99371.11
2024-01-11T09:42:18.389Z,99369.21
2024-01-11T09:44:46.030Z,99362.73
2024-01-11T09:47:16.192Z,99367.46
2024-01-11T09:49:47.654Z,99360.83
2024-01-11T09:52:16.523Z,99355.41
2024-01-11T09:54:44.287Z,99348.23
2024-01-11T09:57:12.066Z,99343.16
2024-01-11T09:59:39.735Z,99341.09
2024-01-11T10:02:09.880Z,99339.20
2024-01-11T10:04:38.822Z,99342.02
2024-01-11T10:07:09.983Z,99339.27
2024-01-11T10:09:37.868Z,99330.33
2024-01-11T10:12:06.515Z,99333.13
2024-01-11T10:14:34.275Z,99324.37
2024-01-11T10:17:02.699Z,99318.60
2024-01-11T10:19:30.665Z,99319.80
2024-01-11T10:21:59.957Z,99315.77
2024-01-11T10:24:27.663Z,99310.86
2024-01-11T10:26:59.484Z,99310.52
2024-01-11T10:29:33.369Z,99307.92
2024-01-11T10:32:00.971Z,99299.89
2024-01-11T10:34:28.575Z,99300.59
2024-01-11T10:36:55.981Z,99292.21
2024-01-11T10:39:27.268Z,99282.91
2024-01-11T10:42:13.188Z,99284.14
2024-01-11T10:44:41.420Z,99285.89
2024-01-11T10:47:09.164Z,99279.75
2024-01-11T10:49:38.886Z,99280.80
2024-01-11T10:52:07.352Z,99280.09
2024-01-11T10:54:35.887Z,99280.09
2024-01-11T10:57:06.360Z,99280.63
2024-01-11T10:59:34.024Z,99274.69
2024-01-11T11:02:06.008Z,99265.75
2024-01-11T11:04:34.121Z,99266.98
2024-01-11T11:07:02.324Z,99266.80
2024-01-11T11:09:29.793Z,99260.31
2024-01-11T11:11:57.643Z,99254.19
2024-01-11T11:14:25.563Z,99252.96
2024-01-11T11:16:53.343Z,99249.29
2024-01-11T11:19:21.730Z,99248.23
2024-01-11T11:21:49.436Z,99238.06
2024-01-11T11:24:17.947Z,99236.67
2024-01-11T11:26:45.537Z,99229.85
2024-01-11T11:29:13.059Z,99225.83
2024-01-11T11:31:44.653Z,99223.73
2024-01-11T11:34:13.079Z,99221.63
2024-01-11T11:36:44.170Z,99219.88
2024-01-11T11:39:14.444Z,99220.23
2024-01-11T11:41:43.913Z,99213.58
2024-01-11T11:44:13.508Z,99209.70
2024-01-11T11:46:40.976Z,99211.28
2024-01-11T11:49:08.529Z,99210.41
2024-01-11T11:51:36.021Z,99203.94
2024-01-11T11:54:03.736Z,99198.84
2024-01-11T11:56:31.940Z,99190.25
2024-01-11T11:58:59.340Z,99185.88
2024-01-11T12:01:26.876Z,99185.00
2024-01-11T12:03:54.638Z,99180.61
2024-01-11T12:06:24.274Z,99175.70
2024-01-11T12:08:53.707Z,99167.98
2024-01-11T12:11:22.197Z,99163.77
2024-01-11T12:13:49.950Z,99154.66
2024-01-11T12:16:17.295Z,99155.89
2024-01-11T12:18:44.786Z,99148.00
2024-01-11T12:21:12.513Z,99143.42
2024-01-11T12:23:40.584Z,99145.38
2024-01-11T12:26:12.786Z,99144.52
2024-01-11T12:28:40.880Z,99145.56
2024-01-11T12:31:08.449Z,99140.64
2024-01-11T12:33:36.882Z,99141.17
2024-01-11T12:36:06.180Z,99139.79
2024-01-11T12:38:34.720Z,99131.02
2024-01-11T12:41:02.164Z,99129.08
2024-01-11T12:43:29.882Z,99123.65
2024-01-11T12:45:57.428Z,99125.05
2024-01-11T12:48:25.604Z,99123.85
2024-01-11T12:51:09.920Z,99122.63
2024-01-11T12:53:43.669Z,99123.16
2024-01-11T12:56:14.701Z,99120.71
2024-01-11T12:58:42.563Z,99120.54
2024-01-11T13:01:12.011Z,99117.20
2024-01-11T13:03:40.079Z,99111.42
2024-01-11T13:06:10.652Z,99107.75
2024-01-11T13:08:40.836Z,99098.63
2024-01-11T13:11:08.746Z,99096.86
2024-01-11T13:13:36.326Z,99094.08
2024-01-11T13:16:12.642Z,99102.84
2024-01-11T13:18:40.396Z,99099.67
2024-01-11T13:21:11.253Z,99089.34
2024-01-11T13:23:39.584Z,99082.16
2024-01-11T13:26:07.618Z,99076.75
2024-01-11T13:28:35.158Z,99074.83
2024-01-11T13:31:03.785Z,99070.63
2024-01-11T13:33:31.497Z,99066.23
2024-01-11T13:35:59.029Z,99062.02
2024-01-11T13:38:26.584Z,99061.84
2024-01-11T13:40:54.274Z,99059.90
2024-01-11T13:43:21.668Z,99063.23
2024-01-11T13:45:49.721Z,99057.29
2024-01-11T13:48:17.221Z,99057.28
2024-01-11T13:50:44.725Z,99052.02
2024-01-11T13:53:12.140Z,99050.60
2024-01-11T13:55:40.514Z,99051.15
2024-01-11T13:58:08.736Z,99048.89
2024-01-11T14:00:36.333Z,99044.85
2024-01-11T14:03:06.554Z,99047.31
2024-01-11T14:05:34.535Z,99048.88
2024-01-11T14:08:02.752Z,99051.34
2024-01-11T14:10:30.257Z,99048.70
2024-01-11T14:12:57.758Z,99051.00
2024-01-11T14:15:26.270Z,99045.05
2024-01-11T14:17:54.287Z,99039.28
2024-01-11T14:20:22.396Z,99039.82
2024-01-11T14:22:50.856Z,99035.26
2024-01-11T14:25:21.800Z,99038.23
2024-01-11T14:27:49.312Z,99035.42
2024-01-11T14:30:16.801Z,99032.63
2024-01-11T14:32:46.404Z,99033.85
2024-01-11T14:35:15.301Z,99032.98
2024-01-11T14:37:44.096Z,99031.59
2024-01-11T14:40:14.674Z,99035.10
2024-01-11T14:42:43.534Z,99036.33
2024-01-11T14:45:11.221Z,99028.80
2024-01-11T14:47:38.936Z,99030.88
2024-01-11T14:50:11.139Z,99026.32
2024-01-11T14:52:42.031Z,99021.94
2024-01-11T14:55:11.790Z,99017.56
2024-01-11T14:57:40.660Z,99019.14
2024-01-11T15:00:09.562Z,99011.42
2024-01-11T15:02:37.374Z,99007.94
2024-01-11T15:05:05.357Z,99008.99
2024-01-11T15:07:33.694Z,99012.84
2024-01-11T15:10:01.233Z,99009.68
2024-01-11T15:12:28.709Z,99011.44
2024-01-11T15:14:56.218Z,99003.72
2024-01-11T15:17:23.925Z,99010.02
2024-01-11T15:19:52.106Z,99008.41
2024-01-11T15:22:19.602Z,99010.52
2024-01-11T15:24:54.006Z,99010.34
2024-01-11T15:27:23.200Z,99005.09
2024-01-11T15:29:54.449Z,98990.39
2024-01-11T15:32:23.712Z,99005.10
2024-01-11T15:34:54.161Z,99009.48
2024-01-11T15:37:24.371Z,99014.90
2024-01-11T15:39:52.180Z,99015.94
2024-01-11T15:42:20.298Z,99012.75
2024-01-11T15:44:47.836Z,99016.26
2024-01-11T15:47:15.434Z,99010.63
2024-01-11T15:49:43.298Z,99011.84
2024-01-11T15:52:12.119Z,99005.33
2024-01-11T15:54:39.634Z,99005.48
2024-01-11T15:57:08.143Z,99004.61
2024-01-11T15:59:36.307Z,99002.67
2024-01-11T16:02:07.377Z,98995.63
2024-01-11T16:04:35.952Z,98989.65
2024-01-11T16:07:04.176Z,98975.10
2024-01-11T16:09:32.193Z,98976.16
2024-01-11T16:12:03.619Z,98980.02
2024-01-11T16:14:33.157Z,98982.97
2024-01-11T16:17:02.169Z,98985.92
2024-01-11T16:19:32.755Z,98987.47
2024-01-11T16:22:01.278Z,98985.89
2024-01-11T16:24:32.161Z,98982.94
2024-01-11T16:27:01.523Z,98979.80
2024-01-11T16:29:32.217Z,98976.98
2024-01-11T16:32:03.482Z,98977.00
2024-01-11T16:34:34.055Z,98973.30
2024-01-11T16:37:04.482Z,98973.31
2024-01-11T16:39:35.185Z,98964.94
2024-01-11T16:42:05.213Z,98963.70
2024-01-11T16:44:35.063Z,98967.02
2024-01-11T16:47:05.275Z,98962.08
2024-01-11T16:49:34.837Z,98956.67
2024-01-11T16:52:05.847Z,98951.58
2024-01-11T16:54:36.243Z,98948.47
2024-01-11T16:57:06.197Z,98945.13
2024-01-11T16:59:37.291Z,98944.87
2024-01-11T17:02:07.268Z,98944.95
2024-01-11T17:04:37.293Z,98941.79
2024-01-11T17:07:08.253Z,98936.48
2024-01-11T17:09:39.236Z,98941.70
2024-01-11T17:12:09.418Z,98941.83
2024-01-11T17:14:39.381Z,98938.29
2024-01-11T17:24:46.536Z,98923.95
2024-01-11T17:27:15.333Z,98926.23
2024-01-11T17:29:42.661Z,98930.27
2024-01-11T17:32:09.501Z,98935.20
2024-01-11T17:34:36.632Z,98926.42
2024-01-11T17:37:03.523Z,98923.29
2024-01-11T17:39:30.248Z,98926.25
2024-01-11T17:42:00.081Z,98930.45
2024-01-11T17:44:28.253Z,98929.42
2024-01-11T17:46:54.947Z,98935.41
2024-01-11T17:49:21.716Z,98940.52
2024-01-11T17:51:48.670Z,98933.69
2024-01-11T17:54:16.409Z,98932.63
2024-01-11T17:56:43.407Z,98928.95
2024-01-11T17:59:10.451Z,98923.31
2024-01-11T18:01:37.284Z,98920.66
2024-01-11T18:04:04.879Z,98914.84
2024-01-11T18:06:32.568Z,98923.98
2024-01-11T18:08:59.580Z,98902.86
2024-01-11T18:11:26.613Z,98919.00
2024-01-11T18:13:55.320Z,98914.98
2024-01-11T18:16:23.138Z,98921.50
2024-01-11T18:18:50.339Z,98910.81
2024-01-11T18:21:17.147Z,98917.46
2024-01-11T18:23:44.363Z,98923.71
2024-01-11T18:26:11.389Z,98922.63
2024-01-11T18:28:38.839Z,98920.84
2024-01-11T18:31:06.215Z,98923.45
2024-01-11T18:33:33.124Z,98924.50
2024-01-11T18:35:59.971Z,98920.45
2024-01-11T18:38:27.115Z,98919.93
2024-01-11T18:40:54.147Z,98925.88
2024-01-11T18:43:20.856Z,98922.52
2024-01-11T18:45:50.306Z,98929.70
2024-01-11T18:48:19.070Z,98935.99
2024-01-11T18:50:46.278Z,98937.55
2024-01-11T18:53:13.129Z,98937.85
2024-01-11T18:55:40.324Z,98934.97
2024-01-11T18:58:07.910Z,98935.28
2024-01-11T19:00:35.229Z,98929.13
2024-01-11T19:03:02.210Z,98928.05
2024-01-11T19:05:30.693Z,98927.70
2024-01-11T19:08:00.078Z,98929.27
2024-01-11T19:10:26.959Z,98929.41
2024-01-11T19:12:54.077Z,98925.90
2024-01-11T19:15:20.841Z,98929.23
2024-01-11T19:17:48.058Z,98925.35
2024-01-11T19:20:17.539Z,98919.89
2024-01-11T19:22:44.417Z,98924.25
2024-01-11T19:25:11.703Z,98928.48
2024-01-11T19:27:38.512Z,98928.33
2024-01-11T19:30:08.553Z,98926.59
2024-01-11T19:32:35.861Z,98932.70
2024-01-11T19:35:02.831Z,98930.39
2024-01-11T19:37:32.460Z,98932.63
2024-01-11T19:39:59.393Z,98934.02
2024-01-11T19:42:26.142Z,98936.12
2024-01-11T19:44:53.046Z,98942.56
2024-01-11T19:47:19.977Z,98946.20
2024-01-11T19:49:46.737Z,98951.48
2024-01-11T19:52:13.538Z,98951.10
2024-01-11T19:54:40.896Z,98950.92
2024-01-11T19:57:07.609Z,98947.27
2024-01-11T19:59:34.584Z,98951.35
2024-01-11T20:02:02.400Z,98956.79
2024-01-11T20:04:32.861Z,98957.52
2024-01-11T20:06:59.908Z,98964.71
2024-01-11T20:09:26.797Z,98968.22
2024-01-11T20:11:53.816Z,98975.73
2024-01-11T20:14:20.743Z,98976.21
2024-01-11T20:16:47.397Z,98976.52
2024-01-11T20:19:14.211Z,98981.02
2024-01-11T20:21:41.284Z,98982.05
2024-01-11T20:24:08.064Z,99006.09
2024-01-11T20:26:35.712Z,99064.53
2024-01-11T20:29:02.554Z,99078.16
2024-01-11T20:31:32.030Z,99102.25
2024-01-11T20:34:02.345Z,99113.36
2024-01-11T20:36:29.401Z,99128.34
2024-01-11T20:38:56.078Z,99123.67
2024-01-11T20:41:24.032Z,99134.55
2024-01-11T20:43:50.858Z,99153.73
2024-01-11T20:46:21.735Z,99138.82
2024-01-11T20:48:48.501Z,99161.61
2024-01-11T20:52:55.654Z,99181.40
2024-01-11T20:55:23.242Z,99178.70
2024-01-11T20:57:50.873Z,99183.70
2024-01-11T21:00:20.318Z,99194.56
2024-01-11T21:02:48.287Z,99195.67
2024-01-11T21:05:16.187Z,99202.83
2024-01-11T21:07:43.995Z,99214.09
2024-01-11T21:10:11.751Z,99222.72
2024-01-11T21:12:39.407Z,99231.10
2024-01-11T21:15:08.904Z,99235.98
2024-01-11T21:17:37.206Z,99247.13
2024-01-11T21:20:06.598Z,99254.77
2024-01-11T21:22:34.267Z,99259.66
2024-01-11T21:25:02.244Z,99270.77
2024-01-11T21:27:29.741Z,99278.20
2024-01-11T21:29:57.285Z,99284.15
2024-01-11T21:32:24.960Z,99282.51
2024-01-11T21:34:52.494Z,99298.79
2024-01-11T21:37:20.073Z,99295.20
2024-01-11T21:39:47.517Z,99299.48
2024-01-11T21:42:15.080Z,99314.79
2024-01-11T21:44:42.513Z,99319.01
2024-01-11T21:47:10.054Z,99325.48
2024-01-11T21:49:37.565Z,99339.96
2024-01-11T21:52:05.357Z,99346.15
2024-01-11T21:54:35.678Z,99356.87
2024-01-11T21:57:03.435Z,99367.38
2024-01-11T21:59:31.038Z,99375.21
2024-01-11T22:01:58.680Z,99372.05
2024-01-11T22:04:26.077Z,99379.02
2024-01-11T22:06:53.573Z,99383.33
2024-01-11T22:09:21.147Z,99392.12
2024-01-11T22:11:48.732Z,99404.44
2024-01-11T22:14:16.567Z,99413.20
2024-01-11T22:16:44.000Z,99415.70
2024-01-11T22:19:11.619Z,99423.25
2024-01-11T22:21:40.726Z,99425.23
2024-01-11T22:24:08.546Z,99434.71
2024-01-11T22:26:36.046Z,99442.52
2024-01-11T22:29:04.116Z,99449.04
2024-01-11T22:31:38.284Z,99453.78
2024-01-11T22:34:05.880Z,99469.18
2024-01-11T22:36:33.346Z,99473.09
2024-01-11T22:39:00.969Z,99476.20
2024-01-11T22:41:30.782Z,99485.06
2024-01-11T22:43:58.367Z,99497.98
2024-01-11T22:46:25.993Z,99512.09
2024-01-11T22:48:53.508Z,99524.65
2024-01-11T22:51:21.026Z,99526.61
2024-01-11T22:53:48.691Z,99533.38
2024-01-11T22:56:16.172Z,99533.70
2024-01-11T22:58:43.705Z,99544.14
2024-01-11T23:01:11.151Z,99552.35
2024-01-11T23:03:38.735Z,99560.23
2024-01-11T23:06:06.309Z,99563.73
2024-01-11T23:08:33.784Z,99570.52
2024-01-11T23:11:04.115Z,99578.88
2024-01-11T23:13:31.638Z,99576.97
2024-01-11T23:15:59.050Z,99585.37
2024-01-11T23:18:26.531Z,99594.67
2024-01-11T23:20:54.085Z,99591.42
2024-01-11T23:23:21.577Z,99605.88
2024-01-11T23:25:49.035Z,99599.91
2024-01-11T23:28:16.554Z,99606.08
2024-01-11T23:30:44.096Z,99617.98
2024-01-11T23:33:12.558Z,99621.77
2024-01-11T23:35:40.918Z,99626.29
2024-01-11T23:38:08.346Z,99637.65
2024-01-11T23:40:35.743Z,99637.83
2024-01-11T23:43:03.234Z,99646.85
2024-01-11T23:45:30.612Z,99661.41
2024-01-11T23:47:59.057Z,99664.70
2024-01-11T23:50:26.703Z,99668.60
2024-01-11T23:52:54.274Z,99671.83
2024-01-11T23:55:21.642Z,99679.66
2024-01-11T23:57:49.150Z,99672.96
